Time;durP1;ratioP1;P1;durP2;ratioP2;P2;SDS_P1;SDS_P2;PMS_P1;PMS_P2;Temp;Humidity;BMP_temperature;BMP_pressure;BME280_temperature;BME280_humidity;BME280_pressure;Samples;Min_cycle;Max_cycle;Signal;HPM_P1;HPM_P2
2023/09/18 00:02:00;;;;;;;;;;;;;;;17.04;89.71;101502.53;105530;1271;126133;-84
2023/09/18 00:04:26;;;;;;;;;;;;;;;17.02;89.66;101501.61;105673;1268;62085;-81
2023/09/18 00:06:53;;;;;;;;;;;;;;;17.01;89.78;101493.98;105747;1272;125108;-82
2023/09/18 00:09:19;;;;;;;;;;;;;;;16.99;89.73;101490.58;105671;1268;62056;-83
2023/09/18 00:11:46;;;;;;;;;;;;;;;16.96;89.61;101486.48;105552;1267;125401;-83
2023/09/18 00:14:12;;;;;;;;;;;;;;;16.92;89.64;101486.96;105775;1268;72652;-82
2023/09/18 00:16:39;;;;;;;;;;;;;;;16.89;89.79;101488.70;105730;1273;62069;-84
2023/09/18 00:19:07;;;;;;;;;;;;;;;16.87;89.84;101488.35;105626;1267;126485;-82
2023/09/18 00:21:34;;;;;;;;;;;;;;;16.85;89.89;101491.51;105825;1273;75522;-82
2023/09/18 00:24:01;;;;;;;;;;;;;;;16.83;89.99;101492.01;105655;1268;125397;-83
2023/09/18 00:26:27;;;;;;;;;;;;;;;16.81;89.91;101487.17;105762;1267;72763;-84
2023/09/18 00:28:54;;;;;;;;;;;;;;;16.79;90.08;101486.80;105456;1268;60173;-84
2023/09/18 00:31:20;;;;;;;;;;;;;;;16.78;90.00;101487.66;105548;1281;125286;-84
2023/09/18 00:33:48;;;;;;;;;;;;;;;16.75;89.99;101487.28;105501;1272;74632;-85
2023/09/18 00:36:14;;;;;;;;;;;;;;;16.72;89.90;101487.61;105628;1267;125912;-84
2023/09/18 00:38:41;;;;;;;;;;;;;;;16.70;89.93;101485.64;105539;1274;71934;-84
2023/09/18 00:41:07;;;;;;;;;;;;;;;16.69;90.18;101480.13;105758;1272;62154;-84
2023/09/18 00:43:34;;;;;;;;;;;;;;;16.67;90.14;101478.52;105658;1268;125430;-82
2023/09/18 00:46:01;;;;;;;;;;;;;;;16.65;90.15;101481.67;105811;1267;74702;-81
2023/09/18 00:48:28;;;;;;;;;;;;;;;16.63;90.20;101479.52;105696;1268;125570;-81
2023/09/18 00:50:55;;;;;;;;;;;;;;;16.60;90.14;101477.71;105786;1272;70658;-82
2023/09/18 00:53:21;;;;;;;;;;;;;;;16.59;90.26;101477.70;105758;1268;60410;-85
2023/09/18 00:55:49;;;;;;;;;;;;;;;16.57;90.33;101473.08;105688;1272;125391;-81
2023/09/18 00:58:16;;;;;;;;;;;;;;;16.55;90.42;101468.63;105882;1268;74297;-81
2023/09/18 01:00:43;;;;;;;;;;;;;;;16.54;90.43;101466.85;105756;1268;125465;-81
2023/09/18 01:03:09;;;;;;;;;;;;;;;16.53;90.39;101465.77;105800;1267;72846;-83
2023/09/18 01:05:36;;;;;;;;;;;;;;;16.50;90.47;101464.67;105707;1270;125296;-82
2023/09/18 01:08:04;;;;;;;;;;;;;;;16.49;90.59;101471.02;105679;1275;61979;-79
2023/09/18 01:10:33;;;;;;;;;;;;;;;16.47;90.52;101472.61;105835;1268;73938;-80
2023/09/18 01:13:03;;;;;;;;;;;;;;;16.46;90.59;101471.00;105672;1268;126275;-80
2023/09/18 01:15:33;;;;;;;;;;;;;;;16.45;90.63;101466.02;105603;1276;72859;-80
2023/09/18 01:18:00;;;;;;;;;;;;;;;16.44;90.67;101460.54;105759;1268;125335;-80
2023/09/18 01:20:27;;;;;;;;;;;;;;;16.42;90.66;101455.18;105739;1268;60394;-81
2023/09/18 01:22:54;;;;;;;;;;;;;;;16.42;90.78;101451.30;105843;1268;74206;-81
2023/09/18 01:25:20;;;;;;;;;;;;;;;16.41;90.87;101445.79;105739;1273;127003;-80
2023/09/18 01:27:47;;;;;;;;;;;;;;;16.41;90.93;101443.47;105650;1268;62071;-80
2023/09/18 01:30:15;;;;;;;;;;;;;;;16.40;91.01;101444.00;105700;1268;126268;-81
2023/09/18 01:32:42;;;;;;;;;;;;;;;16.38;90.93;101443.27;106282;1267;62113;-80
2023/09/18 01:35:09;;;;;;;;;;;;;;;16.37;91.11;101447.14;105804;1268;75063;-79
2023/09/18 01:37:36;;;;;;;;;;;;;;;16.35;91.11;101451.38;105518;1267;126043;-83
2023/09/18 01:40:06;;;;;;;;;;;;;;;16.33;91.11;101450.65;105698;1267;72817;-81
2023/09/18 01:42:33;;;;;;;;;;;;;;;16.32;91.23;101450.98;105804;1268;131047;-83
2023/09/18 01:45:00;;;;;;;;;;;;;;;16.31;91.16;101446.01;105637;1274;62154;-81
2023/09/18 01:47:26;;;;;;;;;;;;;;;16.30;91.17;101442.98;105770;1271;73942;-84
2023/09/18 01:49:53;;;;;;;;;;;;;;;16.28;91.25;101442.78;105325;1268;125070;-83
2023/09/18 01:52:20;;;;;;;;;;;;;;;16.27;91.26;101437.28;105862;1268;72702;-81
2023/09/18 01:54:46;;;;;;;;;;;;;;;16.25;91.24;101439.73;105715;1268;125450;-83
2023/09/18 01:57:13;;;;;;;;;;;;;;;16.22;91.22;101437.40;105792;1268;62057;-80
2023/09/18 01:59:41;;;;;;;;;;;;;;;16.19;91.24;101432.40;105776;1268;125418;-81
2023/09/18 02:02:09;;;;;;;;;;;;;;;16.17;91.25;101432.73;105691;1268;64958;-80
2023/09/18 02:04:36;;;;;;;;;;;;;;;16.15;91.23;101427.02;105834;1268;72717;-80
2023/09/18 02:07:03;;;;;;;;;;;;;;;16.12;91.35;101430.36;105738;1268;125578;-80
2023/09/18 02:09:29;;;;;;;;;;;;;;;16.10;91.19;101432.11;105838;1267;62172;-80
2023/09/18 02:11:56;;;;;;;;;;;;;;;16.07;91.26;101430.48;105563;1268;125309;-81
2023/09/18 02:14:23;;;;;;;;;;;;;;;16.05;91.12;101432.58;105725;1268;64492;-81
2023/09/18 02:16:50;;;;;;;;;;;;;;;16.03;91.22;101432.72;105563;1273;71614;-81
2023/09/18 02:19:18;;;;;;;;;;;;;;;16.01;91.15;101427.21;105646;1269;125445;-81
2023/09/18 02:21:44;;;;;;;;;;;;;;;15.99;91.15;101425.40;105567;1276;62112;-80
2023/09/18 02:24:11;;;;;;;;;;;;;;;15.97;91.16;101419.36;105769;1268;125313;-81
2023/09/18 02:26:38;;;;;;;;;;;;;;;15.94;91.24;101421.98;105858;1273;64646;-81
2023/09/18 02:29:13;;;;;;;;;;;;;;;15.92;91.35;101422.84;105583;1267;71444;-81
2023/09/18 02:31:40;;;;;;;;;;;;;;;15.92;91.31;101422.30;105657;1270;125361;-81
2023/09/18 02:34:07;;;;;;;;;;;;;;;15.89;91.16;101419.80;105834;1270;60533;-81
2023/09/18 02:36:33;;;;;;;;;;;;;;;15.85;91.06;101415.84;105707;1270;125211;-81
2023/09/18 02:39:00;;;;;;;;;;;;;;;15.83;91.24;101414.74;105596;1268;67017;-80
2023/09/18 02:41:27;;;;;;;;;;;;;;;15.83;91.39;101417.58;105667;1274;73016;-91
2023/09/18 02:43:53;;;;;;;;;;;;;;;15.83;91.48;101416.70;105457;1270;125524;-83
2023/09/18 02:46:20;;;;;;;;;;;;;;;15.81;91.43;101415.08;105710;1268;62058;-82
2023/09/18 02:48:46;;;;;;;;;;;;;;;15.80;91.53;101414.34;105730;1268;125039;-82
2023/09/18 02:51:13;;;;;;;;;;;;;;;15.79;91.44;101415.92;105844;1268;65292;-81
2023/09/18 02:53:39;;;;;;;;;;;;;;;15.76;91.26;101416.76;105635;1273;125264;-82
2023/09/18 02:56:06;;;;;;;;;;;;;;;15.71;91.21;101415.77;105874;1272;61942;-81
2023/09/18 02:58:32;;;;;;;;;;;;;;;15.67;91.24;101407.77;105919;1273;62066;-81
2023/09/18 03:00:59;;;;;;;;;;;;;;;15.65;91.18;101406.31;105743;1268;125212;-81
2023/09/18 03:03:26;;;;;;;;;;;;;;;15.62;91.01;101402.20;105592;1268;64036;-82
2023/09/18 03:05:52;;;;;;;;;;;;;;;15.58;91.06;101399.66;105659;1267;125387;-81
2023/09/18 03:08:19;;;;;;;;;;;;;;;15.55;91.13;101397.69;105719;1272;62038;-81
2023/09/18 03:10:46;;;;;;;;;;;;;;;15.53;91.05;101394.64;105600;1267;62091;-81
2023/09/18 03:13:13;;;;;;;;;;;;;;;15.50;91.03;101391.77;105725;1268;125278;-82
2023/09/18 03:15:40;;;;;;;;;;;;;;;15.49;91.35;101392.10;105771;1268;64995;-84
2023/09/18 03:18:10;;;;;;;;;;;;;;;15.48;91.38;101387.13;105521;1270;126081;-83
2023/09/18 03:20:36;;;;;;;;;;;;;;;15.46;91.41;101382.86;105723;1270;62069;-82
2023/09/18 03:23:03;;;;;;;;;;;;;;;15.46;91.46;101378.96;105523;1271;62078;-82
2023/09/18 03:25:29;;;;;;;;;;;;;;;15.45;91.38;101378.06;105700;1270;125253;-83
2023/09/18 03:27:56;;;;;;;;;;;;;;;15.41;91.26;101376.95;105748;1272;66238;-83
2023/09/18 03:30:26;;;;;;;;;;;;;;;15.37;91.19;101377.07;105542;1267;125566;-83
2023/09/18 03:32:53;;;;;;;;;;;;;;;15.33;90.93;101370.64;105686;1268;62208;-83
2023/09/18 03:35:20;;;;;;;;;;;;;;;15.30;91.16;101372.37;105541;1268;62062;-83
2023/09/18 03:37:53;;;;;;;;;;;;;;;15.29;91.43;101366.52;105680;1274;125160;-84
2023/09/18 03:40:20;;;;;;;;;;;;;;;15.29;91.51;101363.87;105779;1273;64856;-84
2023/09/18 03:42:47;;;;;;;;;;;;;;;15.30;91.67;101365.46;105513;1268;125703;-84
2023/09/18 03:45:13;;;;;;;;;;;;;;;15.29;91.60;101364.73;105697;1272;62174;-84
2023/09/18 03:47:40;;;;;;;;;;;;;;;15.26;91.33;101365.41;105481;1270;125539;-80
2023/09/18 03:50:07;;;;;;;;;;;;;;;15.23;91.27;101363.08;105873;1272;75535;-84
2023/09/18 03:52:34;;;;;;;;;;;;;;;15.20;91.01;101362.13;105638;1268;64426;-82
2023/09/18 03:55:01;;;;;;;;;;;;;;;15.17;91.04;101357.48;105553;1268;125594;-81
2023/09/18 03:57:27;;;;;;;;;;;;;;;15.11;90.70;101361.11;105666;1268;62013;-80
2023/09/18 03:59:54;;;;;;;;;;;;;;;15.05;90.71;101355.16;105674;1268;127129;-81
2023/09/18 04:02:21;;;;;;;;;;;;;;;15.02;90.77;101351.23;105721;1281;74202;-81
2023/09/18 04:04:48;;;;;;;;;;;;;;;15.01;90.76;101348.92;105588;1271;65424;-81
2023/09/18 04:07:16;;;;;;;;;;;;;;;15.00;90.69;101350.48;105648;1273;125417;-82
2023/09/18 04:09:43;;;;;;;;;;;;;;;14.96;90.57;101345.13;105468;1268;60107;-81
2023/09/18 04:12:09;;;;;;;;;;;;;;;14.93;90.56;101344.91;105506;1273;125614;-84
2023/09/18 04:14:36;;;;;;;;;;;;;;;14.90;90.57;101340.44;105692;1270;75042;-85
2023/09/18 04:17:02;;;;;;;;;;;;;;;14.89;90.68;101337.95;105865;1267;66778;-86
2023/09/18 04:19:29;;;;;;;;;;;;;;;14.88;90.62;101338.46;105572;1273;125147;-84
2023/09/18 04:21:56;;;;;;;;;;;;;;;14.87;90.68;101332.80;105737;1271;62181;-83
2023/09/18 04:24:23;;;;;;;;;;;;;;;14.88;90.93;101330.33;105517;1267;125653;-84
2023/09/18 04:26:52;;;;;;;;;;;;;;;14.89;90.74;101323.80;105618;1271;75511;-84
2023/09/18 04:29:19;;;;;;;;;;;;;;;14.89;90.58;101319.73;105503;1276;66307;-84
2023/09/18 04:31:46;;;;;;;;;;;;;;;14.88;90.63;101315.48;105475;1267;125207;-82
2023/09/18 04:34:13;;;;;;;;;;;;;;;14.88;90.76;101310.53;105062;1272;64689;-80
2023/09/18 04:36:40;;;;;;;;;;;;;;;14.96;91.05;101314.73;105117;1273;125170;-82
2023/09/18 04:39:07;;;;;;;;;;;;;;;15.11;91.60;101314.60;105785;1272;75532;-78
2023/09/18 04:41:34;;;;;;;;;;;;;;;15.33;91.76;101309.81;105057;1274;65026;-78
2023/09/18 04:44:00;;;;;;;;;;;;;;;15.54;91.54;101303.91;105755;1273;125124;-82
2023/09/18 04:46:29;;;;;;;;;;;;;;;15.69;91.29;101300.75;105844;1271;62082;-82
2023/09/18 04:48:56;;;;;;;;;;;;;;;15.78;90.54;101299.30;105746;1271;125232;-82
2023/09/18 04:51:22;;;;;;;;;;;;;;;15.81;90.30;101303.06;105543;1270;75516;-82
2023/09/18 04:53:51;;;;;;;;;;;;;;;15.87;90.26;101303.48;105631;1267;126358;-82
2023/09/18 04:56:20;;;;;;;;;;;;;;;15.93;90.11;101297.02;105826;1272;72734;-81
2023/09/18 04:58:47;;;;;;;;;;;;;;;16.01;90.02;101293.91;105776;1272;62129;-81
2023/09/18 05:01:13;;;;;;;;;;;;;;;16.07;89.78;101285.13;105855;1268;125354;-82
2023/09/18 05:03:40;;;;;;;;;;;;;;;16.14;89.61;101287.68;105790;1268;75365;-80
2023/09/18 05:06:06;;;;;;;;;;;;;;;16.22;89.55;101292.71;105686;1270;125354;-81
2023/09/18 05:08:33;;;;;;;;;;;;;;;16.31;89.39;101292.80;105999;1268;71237;-84
2023/09/18 05:11:00;;;;;;;;;;;;;;;16.38;89.19;101294.48;105623;1273;62113;-81
2023/09/18 05:13:30;;;;;;;;;;;;;;;16.45;89.07;101296.67;105589;1273;125467;-82
2023/09/18 05:15:58;;;;;;;;;;;;;;;16.55;88.94;101302.62;105675;1268;75268;-79
2023/09/18 05:18:25;;;;;;;;;;;;;;;16.64;88.86;101302.52;104988;1272;125279;-78
2023/09/18 05:20:51;;;;;;;;;;;;;;;16.72;88.64;101306.13;105274;1272;72756;-79
2023/09/18 05:23:18;;;;;;;;;;;;;;;16.82;88.67;101301.77;105442;1273;62216;-79
2023/09/18 05:25:45;;;;;;;;;;;;;;;16.92;88.58;101299.05;105792;1273;126183;-80
2023/09/18 05:28:12;;;;;;;;;;;;;;;16.98;88.33;101292.18;105851;1268;74705;-79
2023/09/18 05:30:38;;;;;;;;;;;;;;;17.04;88.17;101294.70;105785;1268;125581;-79
2023/09/18 05:33:05;;;;;;;;;;;;;;;17.08;88.15;101288.71;105662;1273;71429;-78
2023/09/18 05:35:32;;;;;;;;;;;;;;;17.16;88.20;101286.64;105531;1268;61996;-79
2023/09/18 05:37:59;;;;;;;;;;;;;;;17.24;88.41;101280.30;105552;1268;125123;-78
2023/09/18 05:40:26;;;;;;;;;;;;;;;17.33;88.50;101280.01;105679;1268;75048;-80
2023/09/18 05:42:53;;;;;;;;;;;;;;;17.41;88.70;101281.27;105798;1270;125154;-79
2023/09/18 05:45:20;;;;;;;;;;;;;;;17.49;88.71;101282.91;105666;1269;72753;-79
2023/09/18 05:47:47;;;;;;;;;;;;;;;17.56;88.68;101280.11;105596;1273;125563;-79
2023/09/18 05:50:15;;;;;;;;;;;;;;;17.61;88.67;101275.70;105667;1269;62086;-78
2023/09/18 05:52:42;;;;;;;;;;;;;;;17.66;88.60;101270.39;105570;1268;75770;-79
2023/09/18 05:55:09;;;;;;;;;;;;;;;17.69;88.48;101271.11;105686;1273;125232;-79
2023/09/18 05:57:36;;;;;;;;;;;;;;;17.74;88.58;101270.96;105626;1268;72459;-81
2023/09/18 06:00:03;;;;;;;;;;;;;;;17.79;88.50;101272.59;105515;1272;125420;-80
2023/09/18 06:02:29;;;;;;;;;;;;;;;17.84;88.44;101276.70;105661;1273;62117;-80
2023/09/18 06:04:57;;;;;;;;;;;;;;;17.86;88.20;101269.80;105646;1273;75516;-79
2023/09/18 06:07:24;;;;;;;;;;;;;;;17.88;88.12;101265.89;105520;1273;125190;-79
2023/09/18 06:09:51;;;;;;;;;;;;;;;17.93;88.23;101271.77;105658;1268;72494;-80
2023/09/18 06:12:17;;;;;;;;;;;;;;;18.00;88.31;101274.98;105750;1270;125766;-80
2023/09/18 06:14:44;;;;;;;;;;;;;;;18.07;88.04;101274.48;105661;1273;62123;-79
2023/09/18 06:17:11;;;;;;;;;;;;;;;18.12;87.97;101276.61;105792;1268;75252;-79
2023/09/18 06:19:38;;;;;;;;;;;;;;;18.20;87.96;101280.90;105553;1270;125142;-78
2023/09/18 06:22:05;;;;;;;;;;;;;;;18.29;87.88;101285.52;105791;1269;72703;-79
2023/09/18 06:24:32;;;;;;;;;;;;;;;18.37;87.66;101282.33;105771;1273;125162;-78
2023/09/18 06:26:58;;;;;;;;;;;;;;;18.42;87.36;101280.76;105903;1267;62094;-80
2023/09/18 06:29:25;;;;;;;;;;;;;;;18.46;87.12;101272.59;105801;1270;75495;-80
2023/09/18 06:31:51;;;;;;;;;;;;;;;18.51;86.93;101266.01;105602;1271;125429;-79
2023/09/18 06:34:18;;;;;;;;;;;;;;;18.57;86.84;101257.30;105767;1270;71404;-79
2023/09/18 06:36:45;;;;;;;;;;;;;;;18.62;86.54;101249.48;105656;1268;125346;-80
2023/09/18 06:39:11;;;;;;;;;;;;;;;18.66;86.47;101248.77;105868;1272;62104;-79
2023/09/18 06:41:38;;;;;;;;;;;;;;;18.69;86.19;101242.90;105799;1271;75507;-80
2023/09/18 06:44:04;;;;;;;;;;;;;;;18.72;86.13;101239.89;105686;1273;66398;-80
2023/09/18 06:46:31;;;;;;;;;;;;;;;18.77;85.91;101240.58;105719;1279;71295;-80
2023/09/18 06:48:59;;;;;;;;;;;;;;;18.78;85.74;101239.88;105765;1268;125668;-84
2023/09/18 06:51:27;;;;;;;;;;;;;;;18.80;85.44;101239.70;105716;1273;62060;-82
2023/09/18 06:53:54;;;;;;;;;;;;;;;18.82;85.42;101238.14;105756;1273;125985;-84
2023/09/18 06:56:21;;;;;;;;;;;;;;;18.87;85.36;101234.56;105927;1270;66012;-83
2023/09/18 06:58:47;;;;;;;;;;;;;;;18.93;85.50;101233.67;105817;1276;71412;-84
2023/09/18 07:01:15;;;;;;;;;;;;;;;18.98;85.20;101235.25;105555;1274;125377;-84
2023/09/18 07:03:42;;;;;;;;;;;;;;;19.01;84.94;101226.88;105659;1269;62171;-83
2023/09/18 07:06:08;;;;;;;;;;;;;;;19.02;84.70;101228.84;105668;1270;125466;-83
2023/09/18 07:08:36;;;;;;;;;;;;;;;19.03;84.67;101227.59;105713;1272;62097;-83
2023/09/18 07:11:03;;;;;;;;;;;;;;;19.09;84.66;101231.50;105846;1272;72452;-83
2023/09/18 07:13:29;;;;;;;;;;;;;;;19.13;84.70;101233.80;105689;1273;125133;-84
2023/09/18 07:15:56;;;;;;;;;;;;;;;19.21;84.76;101239.30;105720;1268;61994;-83
2023/09/18 07:18:22;;;;;;;;;;;;;;;19.27;84.39;101239.80;105583;1272;125519;-83
2023/09/18 07:20:49;;;;;;;;;;;;;;;19.32;84.37;101240.86;105694;1273;66267;-84
2023/09/18 07:23:16;;;;;;;;;;;;;;;19.41;84.56;101234.06;105757;1273;70420;-84
2023/09/18 07:25:44;;;;;;;;;;;;;;;19.50;84.20;101232.78;105773;1270;125225;-83
2023/09/18 07:28:15;;;;;;;;;;;;;;;19.55;84.03;101232.58;105642;1270;62116;-84
2023/09/18 07:30:43;;;;;;;;;;;;;;;19.61;83.84;101227.04;105653;1270;125364;-84
2023/09/18 07:33:10;;;;;;;;;;;;;;;19.67;83.77;101221.31;105789;1270;66270;-84
2023/09/18 07:35:37;;;;;;;;;;;;;;;19.69;83.39;101220.05;105466;1270;71463;-82
2023/09/18 07:38:04;;;;;;;;;;;;;;;19.69;83.20;101217.73;105652;1267;61375;-82
2023/09/18 07:40:31;;;;;;;;;;;;;;;19.70;83.07;101220.95;105656;1267;60359;-83
2023/09/18 07:42:57;;;;;;;;;;;;;;;19.75;83.23;101220.23;105678;1270;125277;-83
2023/09/18 07:45:24;;;;;;;;;;;;;;;19.82;83.18;101219.66;105653;1273;195890;-83
2023/09/18 07:47:50;;;;;;;;;;;;;;;19.87;82.97;101221.95;105697;1267;125494;-82
2023/09/18 07:50:18;;;;;;;;;;;;;;;19.91;82.80;101225.31;105838;1273;62502;-83
2023/09/18 07:52:44;;;;;;;;;;;;;;;19.95;82.89;101222.97;105760;1273;62088;-83
2023/09/18 07:55:11;;;;;;;;;;;;;;;20.03;82.98;101220.44;105687;1271;125304;-82
2023/09/18 07:57:38;;;;;;;;;;;;;;;20.11;82.91;101223.04;105568;1268;66383;-83
2023/09/18 08:00:07;;;;;;;;;;;;;;;20.20;82.76;101215.50;105484;1270;125322;-82
2023/09/18 08:02:34;;;;;;;;;;;;;;;20.26;82.56;101220.98;105775;1270;60819;-83
2023/09/18 08:05:04;;;;;;;;;;;;;;;20.27;82.10;101216.69;105796;1270;62169;-83
2023/09/18 08:07:31;;;;;;;;;;;;;;;20.26;82.05;101210.64;105802;1272;125174;-84
2023/09/18 08:09:58;;;;;;;;;;;;;;;20.30;81.91;101200.27;105782;1270;66333;-83
2023/09/18 08:12:25;;;;;;;;;;;;;;;20.35;81.78;101196.31;105593;1269;125291;-82
2023/09/18 08:14:52;;;;;;;;;;;;;;;20.38;81.57;101187.02;105811;1269;62232;-82
2023/09/18 08:17:18;;;;;;;;;;;;;;;20.43;81.57;101185.02;105679;1273;62152;-83
2023/09/18 08:19:45;;;;;;;;;;;;;;;20.51;81.55;101184.05;105706;1271;125550;-83
2023/09/18 08:22:15;;;;;;;;;;;;;;;20.54;81.25;101176.89;105899;1271;65011;-83
2023/09/18 08:24:45;;;;;;;;;;;;;;;20.62;81.29;101174.35;105623;1271;125456;-83
2023/09/18 08:27:13;;;;;;;;;;;;;;;20.70;81.19;101167.50;105714;1272;62081;-83
2023/09/18 08:29:40;;;;;;;;;;;;;;;20.75;80.86;101163.52;105505;1270;126498;-83
2023/09/18 08:32:06;;;;;;;;;;;;;;;20.79;80.63;101160.63;105821;1268;74242;-83
2023/09/18 08:34:33;;;;;;;;;;;;;;;20.80;80.37;101156.69;105820;1268;66206;-83
2023/09/18 08:36:59;;;;;;;;;;;;;;;20.83;80.29;101159.16;105578;1268;125292;-83
2023/09/18 08:39:26;;;;;;;;;;;;;;;20.89;80.37;101161.24;105750;1267;60130;-84
2023/09/18 08:41:54;;;;;;;;;;;;;;;20.96;80.20;101162.22;105690;1272;125326;-83
2023/09/18 08:44:22;;;;;;;;;;;;;;;21.03;80.22;101163.04;105728;1271;75380;-83
2023/09/18 08:46:49;;;;;;;;;;;;;;;21.13;80.30;101163.09;105547;1273;66337;-83
2023/09/18 08:49:15;;;;;;;;;;;;;;;21.23;80.23;101165.83;105691;1270;125529;-82
2023/09/18 08:51:42;;;;;;;;;;;;;;;21.32;79.98;101159.11;105786;1270;62098;-82
2023/09/18 08:54:09;;;;;;;;;;;;;;;21.41;79.85;101157.92;105673;1267;125302;-83
2023/09/18 08:56:36;;;;;;;;;;;;;;;21.49;79.58;101156.07;105628;1269;75521;-84
2023/09/18 08:59:03;;;;;;;;;;;;;;;21.54;79.36;101160.09;105733;1268;65036;-83
2023/09/18 09:01:29;;;;;;;;;;;;;;;21.61;79.23;101155.72;105713;1273;125220;-83
2023/09/18 09:03:56;;;;;;;;;;;;;;;21.70;79.07;101157.55;105441;1271;62196;-82
2023/09/18 09:06:23;;;;;;;;;;;;;;;21.82;78.96;101154.89;105457;1270;125851;-83
2023/09/18 09:08:49;;;;;;;;;;;;;;;21.89;78.58;101153.87;105813;1272;75587;-82
2023/09/18 09:11:16;;;;;;;;;;;;;;;21.97;78.45;101148.04;105615;1268;66436;-81
2023/09/18 09:13:42;;;;;;;;;;;;;;;22.05;78.29;101140.94;105592;1268;126039;-82
2023/09/18 09:16:10;;;;;;;;;;;;;;;22.10;78.17;101135.85;105779;1273;62171;-82
2023/09/18 09:18:39;;;;;;;;;;;;;;;22.15;78.01;101124.50;105591;1273;125224;-81
2023/09/18 09:21:06;;;;;;;;;;;;;;;22.23;77.77;101118.48;105679;1268;75539;-83
2023/09/18 09:23:49;;;;;;;;;;;;;;;22.33;77.66;101111.89;105744;1268;64831;-83
2023/09/18 09:26:16;;;;;;;;;;;;;;;22.45;77.50;101107.39;105623;1267;72752;-83
2023/09/18 09:28:43;;;;;;;;;;;;;;;22.55;77.17;101107.55;105659;1268;60093;-82
2023/09/18 09:31:13;;;;;;;;;;;;;;;22.62;76.96;101106.52;105650;1268;125136;-83
2023/09/18 09:33:41;;;;;;;;;;;;;;;22.67;76.63;101104.64;105660;1275;74230;-83
2023/09/18 09:36:08;;;;;;;;;;;;;;;22.71;76.32;101099.19;105585;1270;126346;-82
2023/09/18 09:38:34;;;;;;;;;;;;;;;22.79;76.40;101093.14;105569;1268;72886;-82
2023/09/18 09:41:01;;;;;;;;;;;;;;;22.89;76.45;101092.91;105559;1270;62142;-82
2023/09/18 09:43:29;;;;;;;;;;;;;;;23.00;76.28;101088.40;105617;1273;125398;-81
2023/09/18 09:45:58;;;;;;;;;;;;;;;23.11;76.19;101081.21;105881;1268;75521;-83
2023/09/18 09:48:25;;;;;;;;;;;;;;;23.24;75.85;101073.59;105633;1269;125345;-82
2023/09/18 09:50:53;;;;;;;;;;;;;;;23.36;75.76;101072.80;105706;1270;72767;-83
2023/09/18 09:53:19;;;;;;;;;;;;;;;23.45;75.28;101065.95;105762;1272;62116;-82
2023/09/18 09:55:51;;;;;;;;;;;;;;;23.52;74.74;101067.93;105616;1268;124657;-83
2023/09/18 09:58:18;;;;;;;;;;;;;;;23.59;74.85;101062.57;105568;1271;74776;-84
2023/09/18 10:00:45;;;;;;;;;;;;;;;23.68;74.70;101056.63;105708;1269;124480;-84
2023/09/18 10:03:12;;;;;;;;;;;;;;;23.76;74.38;101053.03;105783;1269;72550;-84
2023/09/18 10:05:41;;;;;;;;;;;;;;;23.83;74.26;101046.27;105885;1268;60088;-85
2023/09/18 10:08:10;;;;;;;;;;;;;;;23.90;74.19;101044.09;105686;1271;124563;-83
2023/09/18 10:10:38;;;;;;;;;;;;;;;23.98;73.83;101036.02;105817;1268;73728;-82
2023/09/18 10:13:21;;;;;;;;;;;;;;;24.02;73.50;101031.05;105777;1271;124910;-84
2023/09/18 10:15:49;;;;;;;;;;;;;;;24.09;73.13;101019.42;105812;1268;71511;-83
2023/09/18 10:18:22;;;;;;;;;;;;;;;24.13;73.06;101014.09;105427;1267;125353;-82
2023/09/18 10:20:49;;;;;;;;;;;;;;;24.17;72.81;101010.21;105728;1270;62172;-83
2023/09/18 10:23:23;;;;;;;;;;;;;;;24.21;72.49;101004.56;105774;1270;76141;-84
2023/09/18 10:25:51;;;;;;;;;;;;;;;24.28;72.53;101001.14;105623;1267;125234;-83
2023/09/18 10:28:18;;;;;;;;;;;;;;;24.38;72.35;100994.23;105727;1267;72783;-83
2023/09/18 10:30:44;;;;;;;;;;;;;;;24.48;71.90;100992.15;105468;1268;125772;-83
2023/09/18 10:33:11;;;;;;;;;;;;;;;24.55;71.55;100987.50;105515;1277;62000;-83
2023/09/18 10:35:38;;;;;;;;;;;;;;;24.65;71.29;100984.14;105488;1273;75523;-83
2023/09/18 10:38:04;;;;;;;;;;;;;;;24.76;71.05;100987.05;105575;1273;125959;-83
2023/09/18 10:40:31;;;;;;;;;;;;;;;24.84;70.52;100989.48;105460;1268;72843;-83
2023/09/18 10:42:58;;;;;;;;;;;;;;;24.88;70.01;100982.55;105376;1268;124742;-82
2023/09/18 10:45:26;;;;;;;;;;;;;;;24.92;69.82;100981.17;105735;1268;62007;-82
2023/09/18 10:47:52;;;;;;;;;;;;;;;25.02;69.78;100973.15;105617;1270;124891;-82
2023/09/18 10:50:26;;;;;;;;;;;;;;;25.18;69.44;100969.39;105648;1276;62164;-83
2023/09/18 10:52:52;;;;;;;;;;;;;;;25.32;69.08;100967.37;105574;1268;72725;-82
2023/09/18 10:55:19;;;;;;;;;;;;;;;25.41;68.65;100967.96;105555;1268;124724;-83
2023/09/18 10:57:57;;;;;;;;;;;;;;;25.52;68.40;100962.21;105589;1267;62011;-83
2023/09/18 11:00:27;;;;;;;;;;;;;;;25.71;68.09;100965.50;105719;1268;124755;-83
2023/09/18 11:03:10;;;;;;;;;;;;;;;25.92;67.64;100967.16;105602;1267;62087;-84
2023/09/18 11:05:37;;;;;;;;;;;;;;;26.03;67.02;100969.13;106017;1268;62642;-81
2023/09/18 11:08:22;;;;;;;;;;;;;;;26.16;66.61;100962.89;105836;1270;124496;-81
2023/09/18 11:11:16;;;;;;;;;;;;;;;26.38;66.56;100963.88;105742;1270;62110;-82
2023/09/18 11:13:45;;;;;;;;;;;;;;;26.60;66.07;100958.90;105546;1273;124964;-82
2023/09/18 11:16:16;;;;;;;;;;;;;;;26.78;65.72;100947.23;106137;1272;62085;-82
2023/09/18 11:18:45;;;;;;;;;;;;;;;26.90;65.09;100942.45;105586;1274;124753;-82
2023/09/18 11:21:12;;;;;;;;;;;;;;;26.94;64.47;100936.91;105723;1272;62177;-81
2023/09/18 11:23:42;;;;;;;;;;;;;;;26.91;64.19;100931.09;105612;1268;60127;-82
2023/09/18 11:26:14;;;;;;;;;;;;;;;26.87;63.88;100928.35;105437;1273;125225;-81
2023/09/18 11:28:42;;;;;;;;;;;;;;;26.80;63.55;100923.25;105745;1269;61993;-82
2023/09/18 11:31:11;;;;;;;;;;;;;;;26.75;63.29;100917.48;105550;1268;124746;-83
2023/09/18 11:33:39;;;;;;;;;;;;;;;26.71;63.05;100912.41;105752;1267;62175;-82
2023/09/18 11:36:06;;;;;;;;;;;;;;;26.67;62.66;100905.20;105481;1268;124733;-81
2023/09/18 11:38:35;;;;;;;;;;;;;;;26.65;62.42;100910.85;105765;1273;66941;-82
2023/09/18 11:41:21;;;;;;;;;;;;;;;26.66;62.28;100909.55;105617;1268;62151;-82
2023/09/18 11:43:47;;;;;;;;;;;;;;;26.69;61.92;100906.91;105683;1268;124469;-82
2023/09/18 11:46:18;;;;;;;;;;;;;;;26.67;61.64;100905.58;105687;1270;62079;-83
2023/09/18 11:48:44;;;;;;;;;;;;;;;26.67;61.71;100904.29;105535;1268;124742;-82
2023/09/18 11:51:11;;;;;;;;;;;;;;;26.68;61.41;100902.08;105664;1272;66905;-82
2023/09/18 11:53:40;;;;;;;;;;;;;;;26.68;60.80;100899.57;105706;1270;62196;-83
2023/09/18 11:56:17;;;;;;;;;;;;;;;26.67;60.77;100895.48;105622;1267;64654;-82
2023/09/18 11:58:47;;;;;;;;;;;;;;;26.64;60.64;100892.20;105720;1272;60089;-82
2023/09/18 12:01:15;;;;;;;;;;;;;;;26.59;60.20;100887.49;105616;1270;124429;-82
2023/09/18 12:03:43;;;;;;;;;;;;;;;26.53;59.99;100890.23;105509;1269;66965;-83
2023/09/18 12:06:12;;;;;;;;;;;;;;;26.48;59.94;100887.37;105402;1276;124942;-84
2023/09/18 12:08:40;;;;;;;;;;;;;;;26.45;59.97;100886.61;105546;1268;64319;-83
2023/09/18 12:11:06;;;;;;;;;;;;;;;26.42;60.06;100880.58;105683;1270;60099;-81
2023/09/18 12:13:33;;;;;;;;;;;;;;;26.35;59.90;100877.62;105435;1268;124817;-84
2023/09/18 12:16:01;;;;;;;;;;;;;;;26.28;59.72;100871.23;105558;1267;66938;-86
2023/09/18 12:18:30;;;;;;;;;;;;;;;26.24;59.66;100869.06;105299;1268;124612;-83
2023/09/18 12:20:58;;;;;;;;;;;;;;;26.24;59.67;100865.45;105523;1273;62829;-83
2023/09/18 12:23:25;;;;;;;;;;;;;;;26.30;59.58;100865.20;105784;1268;62193;-83
2023/09/18 12:26:16;;;;;;;;;;;;;;;26.37;59.50;100863.68;105847;1273;62103;-84